Time;durP1;ratioP1;P1;durP2;ratioP2;P2;SDS_P1;SDS_P2;PMS_P1;PMS_P2;Temp;Humidity;BMP_temperature;BMP_pressure;BME280_temperature;BME280_humidity;BME280_pressure;Samples;Min_cycle;Max_cycle;Signal;HPM_P1;HPM_P2
2022/03/03 00:01:39;;;;;;;143.75;61.10;;;4.30;99.90;;;;;;4994854;28;20034;-73
2022/03/03 00:04:05;;;;;;;134.68;61.13;;;4.30;99.90;;;;;;4994744;28;20483;-73
2022/03/03 00:06:30;;;;;;;141.18;62.53;;;4.20;99.90;;;;;;4993137;28;20116;-74
2022/03/03 00:08:56;;;;;;;154.73;63.28;;;4.10;99.90;;;;;;5017683;23;20042;-76
2022/03/03 00:11:22;;;;;;;158.13;67.43;;;4.10;99.90;;;;;;4995483;28;20533;-76
2022/03/03 00:13:48;;;;;;;144.63;64.65;;;4.00;99.90;;;;;;4997523;28;20050;-77
2022/03/03 00:16:13;;;;;;;153.20;66.70;;;4.00;99.90;;;;;;4994862;28;20034;-76
2022/03/03 00:18:39;;;;;;;138.35;63.17;;;4.00;99.90;;;;;;4993563;28;20080;-77
2022/03/03 00:21:05;;;;;;;157.35;63.90;;;4.00;99.90;;;;;;4994713;28;20034;-76
2022/03/03 00:23:32;;;;;;;146.75;62.63;;;3.90;99.90;;;;;;4993616;28;20018;-76
2022/03/03 00:25:57;;;;;;;128.82;62.50;;;3.80;99.90;;;;;;4994543;28;20085;-76
2022/03/03 00:28:23;;;;;;;208.85;62.03;;;;;;;;;;4993239;28;20023;-76
2022/03/03 00:30:49;;;;;;;151.63;64.75;;;3.50;99.90;;;;;;4994734;28;20407;-75
2022/03/03 00:33:14;;;;;;;153.75;64.90;;;3.40;99.90;;;;;;4994487;28;20027;-76
2022/03/03 00:35:40;;;;;;;141.55;63.08;;;3.40;99.90;;;;;;4992815;28;20480;-76
2022/03/03 00:38:05;;;;;;;154.35;64.40;;;3.40;99.90;;;;;;4994104;28;20174;-75
2022/03/03 00:40:31;;;;;;;139.20;63.08;;;3.30;99.90;;;;;;4994470;28;20045;-75
2022/03/03 00:42:56;;;;;;;158.85;61.38;;;3.30;99.90;;;;;;4993895;28;20113;-74
2022/03/03 00:45:22;;;;;;;133.93;58.42;;;3.30;99.90;;;;;;4994316;28;20034;-77
2022/03/03 00:47:49;;;;;;;128.20;57.65;;;3.20;99.90;;;;;;4994447;28;20026;-77
2022/03/03 00:50:14;;;;;;;126.55;58.35;;;3.20;99.90;;;;;;4994330;28;20073;-77
2022/03/03 00:52:40;;;;;;;130.02;59.20;;;3.20;99.90;;;;;;4994384;28;20492;-74
2022/03/03 00:55:07;;;;;;;129.65;57.80;;;3.20;99.90;;;;;;4994289;28;20112;-75
2022/03/03 00:57:33;;;;;;;133.98;59.33;;;3.30;99.90;;;;;;4993727;28;20040;-76
2022/03/03 00:59:59;;;;;;;139.70;61.13;;;3.20;99.90;;;;;;4994220;28;20487;-78
2022/03/03 01:02:24;;;;;;;137.95;59.33;;;3.30;99.90;;;;;;4993885;28;20027;-77
2022/03/03 01:04:50;;;;;;;140.25;57.05;;;3.30;99.90;;;;;;4993789;28;20036;-76
2022/03/03 01:07:15;;;;;;;160.60;57.10;;;3.20;99.90;;;;;;4993414;28;20034;-76
2022/03/03 01:09:41;;;;;;;118.20;53.17;;;3.10;99.90;;;;;;4993908;28;20034;-76
2022/03/03 01:12:07;;;;;;;150.70;54.80;;;2.90;99.90;;;;;;4993665;28;20515;-76
2022/03/03 01:14:32;;;;;;;128.57;55.97;;;2.90;99.90;;;;;;4993774;28;20034;-76
2022/03/03 01:16:59;;;;;;;121.45;53.80;;;2.80;99.90;;;;;;4993377;28;20538;-76
2022/03/03 01:19:25;;;;;;;120.70;51.90;;;2.80;99.90;;;;;;4993709;28;20041;-76
2022/03/03 01:21:51;;;;;;;115.88;53.25;;;2.70;99.90;;;;;;4993496;28;20038;-75
2022/03/03 01:24:16;;;;;;;105.35;51.65;;;2.70;99.90;;;;;;4993365;28;20113;-76
2022/03/03 01:26:42;;;;;;;108.15;49.38;;;2.60;99.90;;;;;;4993238;28;20022;-76
2022/03/03 01:29:08;;;;;;;111.30;50.42;;;2.60;99.90;;;;;;4993710;28;20022;-76
2022/03/03 01:31:34;;;;;;;106.00;51.30;;;2.60;99.90;;;;;;4992001;28;20027;-76
2022/03/03 01:34:00;;;;;;;111.10;51.90;;;2.60;99.90;;;;;;4992362;28;20026;-77
2022/03/03 01:36:26;;;;;;;113.20;51.65;;;2.70;99.90;;;;;;4992161;28;20085;-77
2022/03/03 01:38:51;;;;;;;110.13;51.25;;;2.70;99.90;;;;;;5006255;28;20027;-77
2022/03/03 01:41:17;;;;;;;110.72;51.50;;;2.70;99.90;;;;;;4994404;28;20029;-76
2022/03/03 01:43:42;;;;;;;109.47;49.97;;;2.70;99.90;;;;;;4992253;28;20030;-77
2022/03/03 01:46:08;;;;;;;106.20;50.28;;;2.80;99.90;;;;;;4992023;28;20034;-77
2022/03/03 01:48:33;;;;;;;100.75;48.53;;;2.80;99.90;;;;;;4992064;28;20033;-76
2022/03/03 01:50:59;;;;;;;102.38;49.33;;;2.80;99.90;;;;;;4990477;28;20419;-76
2022/03/03 01:53:25;;;;;;;107.53;50.13;;;2.90;99.90;;;;;;4991851;28;20053;-76
2022/03/03 01:55:51;;;;;;;107.82;49.92;;;2.70;99.90;;;;;;4991459;28;20084;-76
2022/03/03 01:58:17;;;;;;;114.25;52.97;;;2.90;99.90;;;;;;4991573;28;20030;-76
2022/03/03 02:00:44;;;;;;;102.78;49.42;;;2.90;99.90;;;;;;4991724;28;20022;-76
2022/03/03 02:03:10;;;;;;;116.43;52.50;;;2.90;99.90;;;;;;4991837;28;20153;-76
2022/03/03 02:05:36;;;;;;;104.50;50.08;;;2.90;99.90;;;;;;4992203;28;20034;-76
2022/03/03 02:08:02;;;;;;;101.00;49.50;;;2.90;99.90;;;;;;4993566;28;20045;-76
2022/03/03 02:10:27;;;;;;;103.30;50.17;;;2.90;99.90;;;;;;4991798;28;20053;-75
2022/03/03 02:12:53;;;;;;;106.63;49.75;;;2.90;99.90;;;;;;4991898;28;20079;-77
2022/03/03 02:15:20;;;;;;;104.35;51.40;;;2.80;99.90;;;;;;4991840;28;20081;-77
2022/03/03 02:17:46;;;;;;;96.18;47.45;;;2.80;99.90;;;;;;4992170;28;20033;-76
2022/03/03 02:20:23;;;;;;;99.47;46.83;;;2.90;99.90;;;;;;4991343;28;20034;-76
2022/03/03 02:22:50;;;;;;;109.88;48.80;;;3.00;99.90;;;;;;4995121;28;20050;-78
2022/03/03 02:25:17;;;;;;;114.45;49.88;;;2.90;99.90;;;;;;5001365;28;20041;-79
2022/03/03 02:27:44;;;;;;;113.13;48.33;;;2.90;99.90;;;;;;4999842;28;20019;-80
2022/03/03 02:30:11;;;;;;;94.45;47.33;;;2.80;99.90;;;;;;4996644;28;20117;-80
2022/03/03 02:32:36;;;;;;;97.15;47.95;;;2.70;99.90;;;;;;4998932;28;20514;-81
2022/03/03 02:35:02;;;;;;;96.40;47.38;;;2.70;99.90;;;;;;5011210;28;20082;-77
2022/03/03 02:37:33;;;;;;;96.10;47.05;;;2.70;99.90;;;;;;5013629;28;20022;-77
2022/03/03 02:39:59;;;;;;;98.57;48.45;;;2.80;99.90;;;;;;5011314;28;20054;-81
2022/03/03 02:42:24;;;;;;;98.53;47.50;;;2.70;99.90;;;;;;4999604;28;20026;-79
2022/03/03 02:44:50;;;;;;;101.65;47.58;;;2.70;99.90;;;;;;5000232;28;20110;-80
2022/03/03 02:47:15;;;;;;;93.90;47.70;;;2.70;99.90;;;;;;5004790;28;20022;-81
2022/03/03 02:49:41;;;;;;;101.25;45.97;;;2.70;99.90;;;;;;5007434;28;20058;-79
2022/03/03 02:52:06;;;;;;;129.00;43.78;;;2.70;99.90;;;;;;5009944;28;20022;-80
2022/03/03 02:54:32;;;;;;;99.07;44.05;;;2.60;99.90;;;;;;5005246;28;20037;-83
2022/03/03 02:59:42;;;;;;;89.17;43.50;;;2.50;99.90;;;;;;5007341;28;20511;-77
2022/03/03 03:02:07;;;;;;;95.82;44.72;;;2.40;99.90;;;;;;5011483;28;20015;-76
2022/03/03 03:04:33;;;;;;;90.80;44.45;;;2.30;99.90;;;;;;5009329;28;20382;-80
2022/03/03 03:06:58;;;;;;;95.55;46.80;;;2.20;99.90;;;;;;4999730;28;20022;-79
2022/03/03 03:09:24;;;;;;;97.82;46.00;;;2.30;99.90;;;;;;5001728;28;20057;-79
2022/03/03 03:11:49;;;;;;;105.70;45.97;;;2.30;99.90;;;;;;5000872;28;20030;-79
2022/03/03 03:14:15;;;;;;;131.23;48.65;;;2.40;99.90;;;;;;5001755;28;20026;-79
2022/03/03 03:16:40;;;;;;;99.80;46.58;;;2.30;99.90;;;;;;5002303;28;20022;-79
2022/03/03 03:19:06;;;;;;;101.57;45.47;;;2.20;99.90;;;;;;5002425;28;20058;-79
2022/03/03 03:21:31;;;;;;;89.07;42.83;;;2.20;99.90;;;;;;5007386;28;20046;-79
2022/03/03 03:23:57;;;;;;;86.47;43.72;;;2.20;99.90;;;;;;5014504;28;20061;-77
2022/03/03 03:26:22;;;;;;;94.45;45.45;;;2.10;99.90;;;;;;5012769;28;20050;-75
2022/03/03 03:28:48;;;;;;;104.70;44.25;;;2.10;99.90;;;;;;5018735;28;20025;-75
2022/03/03 03:31:13;;;;;;;85.88;42.00;;;2.20;99.90;;;;;;5019636;28;20029;-77
2022/03/03 03:33:39;;;;;;;121.13;43.88;;;2.10;99.90;;;;;;5019636;28;20018;-75
2022/03/03 03:36:05;;;;;;;93.97;39.75;;;2.10;99.90;;;;;;5019492;28;20011;-75
2022/03/03 03:38:31;;;;;;;157.23;40.38;;;2.00;99.90;;;;;;5020131;28;20022;-74
2022/03/03 03:40:57;;;;;;;82.40;37.28;;;1.90;99.90;;;;;;5020331;28;20042;-75
2022/03/03 03:43:22;;;;;;;85.88;41.40;;;1.80;99.90;;;;;;5020036;28;20034;-74
2022/03/03 03:45:48;;;;;;;85.88;43.00;;;1.70;99.90;;;;;;5009839;28;20468;-80
2022/03/03 03:48:13;;;;;;;87.43;42.15;;;1.70;99.90;;;;;;5000872;28;20034;-80
2022/03/03 03:50:39;;;;;;;99.63;44.25;;;1.70;99.90;;;;;;5000147;28;20030;-80
2022/03/03 03:53:04;;;;;;;89.70;44.53;;;1.70;99.90;;;;;;4999618;28;20061;-81
2022/03/03 03:55:30;;;;;;;86.45;43.17;;;1.70;99.90;;;;;;5001749;28;20026;-78
2022/03/03 03:57:55;;;;;;;92.50;43.20;;;1.80;99.90;;;;;;5001662;28;20110;-81
2022/03/03 04:00:21;;;;;;;94.03;44.00;;;1.80;99.90;;;;;;5003503;28;20022;-78
2022/03/03 04:02:46;;;;;;;86.63;43.72;;;1.90;99.90;;;;;;5004869;28;20030;-80
2022/03/03 04:05:13;;;;;;;89.38;42.90;;;1.90;99.90;;;;;;5003400;28;20026;-80
2022/03/03 04:07:39;;;;;;;84.03;42.63;;;1.90;99.90;;;;;;5002565;28;20023;-79
2022/03/03 04:10:06;;;;;;;81.18;39.47;;;2.00;99.90;;;;;;5002311;28;20018;-78
2022/03/03 04:12:31;;;;;;;80.13;37.85;;;2.00;99.90;;;;;;5001911;28;20034;-78
2022/03/03 04:14:57;;;;;;;81.28;38.70;;;1.90;99.90;;;;;;5006125;28;20042;-77
2022/03/03 04:17:23;;;;;;;78.28;37.75;;;1.90;99.90;;;;;;5017622;28;20019;-76
2022/03/03 04:19:48;;;;;;;88.53;39.13;;;1.90;99.90;;;;;;5017451;28;20031;-79
2022/03/03 04:22:14;;;;;;;86.03;37.85;;;1.80;99.90;;;;;;5018289;28;20029;-75
2022/03/03 04:24:40;;;;;;;81.28;37.95;;;1.80;99.90;;;;;;5018513;28;20046;-76
2022/03/03 04:27:05;;;;;;;110.63;36.88;;;1.70;99.90;;;;;;5018713;28;20022;-76
2022/03/03 04:29:31;;;;;;;73.00;36.15;;;1.70;99.90;;;;;;5017910;28;20038;-78
2022/03/03 04:31:58;;;;;;;72.95;37.92;;;1.70;99.90;;;;;;5014023;28;20033;-82
2022/03/03 04:34:24;;;;;;;84.82;39.47;;;1.70;99.90;;;;;;5008116;28;20033;-79
2022/03/03 04:36:50;;;;;;;80.53;39.30;;;1.70;99.90;;;;;;5008442;28;20026;-77
2022/03/03 04:39:15;;;;;;;75.90;37.85;;;1.70;99.90;;;;;;5004795;28;20489;-77
2022/03/03 04:41:41;;;;;;;81.35;40.22;;;1.70;99.90;;;;;;5018055;28;20236;-77
2022/03/03 04:44:07;;;;;;;78.53;38.08;;;1.70;99.90;;;;;;5004845;28;20026;-80
2022/03/03 04:46:33;;;;;;;86.93;37.55;;;1.70;99.90;;;;;;4999563;28;20082;-80
2022/03/03 04:48:59;;;;;;;77.60;37.92;;;1.70;99.90;;;;;;5001305;28;20049;-82
2022/03/03 04:51:26;;;;;;;87.40;37.67;;;1.70;99.90;;;;;;5007948;28;20002;-77
2022/03/03 04:53:52;;;;;;;98.72;39.42;;;1.70;99.90;;;;;;5007034;28;20396;-80
2022/03/03 04:56:18;;;;;;;76.93;39.72;;;1.70;99.90;;;;;;5001864;28;20045;-78
2022/03/03 04:58:44;;;;;;;81.70;38.10;;;1.70;99.90;;;;;;5000330;28;20045;-80
2022/03/03 05:01:11;;;;;;;103.35;34.95;;;1.70;99.90;;;;;;5005655;28;20400;-80
2022/03/03 05:03:36;;;;;;;72.88;37.03;;;1.60;99.90;;;;;;4998687;28;20126;-79
2022/03/03 05:06:02;;;;;;;76.10;36.65;;;1.60;99.90;;;;;;5006918;28;20057;-80
2022/03/03 05:08:27;;;;;;;72.65;35.65;;;1.60;99.90;;;;;;5000492;28;20125;-82
2022/03/03 05:10:53;;;;;;;70.10;35.10;;;1.50;99.90;;;;;;4999067;28;20026;-81
2022/03/03 05:13:18;;;;;;;74.82;37.40;;;1.60;99.90;;;;;;4999128;28;20049;-80
2022/03/03 05:15:44;;;;;;;78.68;38.28;;;1.60;99.90;;;;;;5000306;28;20029;-80
2022/03/03 05:18:10;;;;;;;75.50;37.50;;;1.60;99.90;;;;;;5000520;28;20069;-79
2022/03/03 05:20:35;;;;;;;75.57;37.08;;;1.60;99.90;;;;;;5000302;28;20026;-79
2022/03/03 05:23:01;;;;;;;72.18;36.97;;;1.60;99.90;;;;;;5000848;28;20425;-79
2022/03/03 05:25:26;;;;;;;80.47;39.25;;;1.70;99.90;;;;;;4998989;28;20369;-80
2022/03/03 05:27:52;;;;;;;80.32;39.15;;;1.80;99.90;;;;;;5000309;28;20498;-79
2022/03/03 05:30:17;;;;;;;79.80;37.70;;;1.80;99.90;;;;;;4998537;28;20063;-77
2022/03/03 05:32:43;;;;;;;77.93;38.03;;;1.80;99.90;;;;;;5002862;28;20082;-79
2022/03/03 05:35:09;;;;;;;81.70;40.60;;;1.90;99.90;;;;;;5006793;28;20102;-79
2022/03/03 05:37:35;;;;;;;82.50;40.28;;;1.90;99.90;;;;;;5011181;28;20062;-79
2022/03/03 05:40:02;;;;;;;76.60;37.60;;;2.00;99.90;;;;;;5008437;28;20026;-80
2022/03/03 05:42:28;;;;;;;85.43;39.58;;;2.00;99.90;;;;;;4999861;28;20031;-80
2022/03/03 05:44:53;;;;;;;85.47;41.10;;;2.00;99.90;;;;;;4999447;28;20030;-78
2022/03/03 05:47:20;;;;;;;85.22;40.25;;;2.00;99.90;;;;;;5000516;28;20465;-80
2022/03/03 05:49:50;;;;;;;90.82;41.17;;;2.00;99.90;;;;;;5000176;28;20026;-80
2022/03/03 05:52:16;;;;;;;88.60;38.75;;;2.00;99.90;;;;;;5003772;28;20073;-79
2022/03/03 05:54:42;;;;;;;82.03;40.15;;;1.90;99.90;;;;;;5012955;28;20034;-80
2022/03/03 05:57:17;;;;;;;115.72;41.78;;;1.80;99.90;;;;;;5014539;28;20100;-78
2022/03/03 05:59:42;;;;;;;;;;;1.80;99.90;;;;;;5014267;28;20030;-75
2022/03/03 06:02:09;;;;;;;129.55;60.35;;;1.80;99.90;;;;;;5014207;28;19906;-76
2022/03/03 06:04:38;;;;;;;92.80;43.70;;;1.90;99.90;;;;;;5014222;28;20050;-76
2022/03/03 06:07:07;;;;;;;86.05;40.95;;;2.00;99.90;;;;;;5011461;28;20047;-77
2022/03/03 06:09:34;;;;;;;103.47;41.00;;;2.00;99.90;;;;;;5016480;23;20109;-72
2022/03/03 06:12:10;;;;;;;97.47;40.58;;;2.00;99.90;;;;;;4995017;28;20018;-73
2022/03/03 06:15:00;;;;;;;84.15;39.15;;;2.00;99.90;;;;;;4995407;28;20033;-73
2022/03/03 06:17:25;;;;;;;117.22;39.33;;;1.90;99.90;;;;;;4994851;28;20065;-73
2022/03/03 06:19:52;;;;;;;77.22;37.55;;;1.90;99.90;;;;;;4993177;28;20018;-72
2022/03/03 06:22:19;;;;;;;77.75;38.38;;;1.80;99.90;;;;;;4993939;28;20129;-73
2022/03/03 06:24:45;;;;;;;88.07;37.83;;;1.80;99.90;;;;;;4993651;28;20027;-72
2022/03/03 06:27:12;;;;;;;84.65;36.95;;;1.70;99.90;;;;;;4993949;28;20023;-73
2022/03/03 06:29:38;;;;;;;72.80;36.33;;;1.80;99.90;;;;;;4992365;28;20420;-73
2022/03/03 06:32:04;;;;;;;110.00;37.97;;;1.70;99.90;;;;;;4992717;28;20027;-75
2022/03/03 06:34:30;;;;;;;85.35;38.38;;;1.60;99.90;;;;;;4993093;28;20118;-73
2022/03/03 06:36:55;;;;;;;88.22;33.78;;;1.60;99.90;;;;;;4992250;28;20034;-73
2022/03/03 06:39:21;;;;;;;70.35;35.60;;;1.50;99.90;;;;;;4992868;28;20463;-74
2022/03/03 06:41:47;;;;;;;77.63;35.60;;;1.40;99.90;;;;;;4996509;28;20118;-74
2022/03/03 06:44:13;;;;;;;76.13;36.53;;;1.40;99.90;;;;;;5001474;28;20026;-74
2022/03/03 06:46:40;;;;;;;68.50;33.75;;;1.40;99.90;;;;;;5006150;28;20472;-75
2022/03/03 06:49:06;;;;;;;74.15;34.78;;;1.30;99.90;;;;;;5002792;28;20085;-73
2022/03/03 06:51:46;;;;;;;73.22;35.05;;;1.40;99.90;;;;;;5004957;28;20053;-74
2022/03/03 06:54:14;;;;;;;117.15;37.35;;;1.40;99.90;;;;;;5001044;28;20018;-72
2022/03/03 06:56:49;;;;;;;72.15;35.35;;;1.40;99.90;;;;;;4996513;28;20018;-72
2022/03/03 06:59:16;;;;;;;72.30;33.88;;;1.40;99.90;;;;;;4997989;28;20076;-70
2022/03/03 07:01:43;;;;;;;73.30;35.65;;;1.50;99.90;;;;;;4996521;28;20029;-72
2022/03/03 07:04:11;;;;;;;85.05;37.10;;;1.50;99.90;;;;;;4998552;28;20026;-72
2022/03/03 07:06:37;;;;;;;77.47;35.17;;;1.50;99.90;;;;;;4999195;28;20031;-72
2022/03/03 07:09:03;;;;;;;72.15;34.67;;;1.60;99.90;;;;;;4999660;28;20518;-71
2022/03/03 07:11:29;;;;;;;74.00;34.10;;;1.60;99.90;;;;;;4996133;28;20022;-72
2022/03/03 07:13:57;;;;;;;71.28;32.50;;;1.70;99.90;;;;;;4995852;28;20026;-71
2022/03/03 07:16:36;;;;;;;67.50;31.98;;;1.70;99.90;;;;;;4996035;28;20034;-72
2022/03/03 07:19:04;;;;;;;65.78;31.55;;;1.80;99.90;;;;;;4994695;28;20036;-72
2022/03/03 07:22:14;;;;;;;65.40;30.15;;;1.90;99.90;;;;;;4997048;28;20033;-71
2022/03/03 07:24:43;;;;;;;63.53;28.77;;;1.80;99.90;;;;;;4995668;28;20030;-71
2022/03/03 07:27:19;;;;;;;68.97;32.97;;;1.80;99.90;;;;;;4995477;28;20014;-74
2022/03/03 07:29:54;;;;;;;66.35;29.77;;;1.90;99.90;;;;;;4997891;28;20491;-75
2022/03/03 07:32:22;;;;;;;;;;;1.90;99.90;;;;;;5000320;28;20023;-76
2022/03/03 07:34:56;;;;;;;62.85;28.55;;;1.80;99.90;;;;;;4996046;28;20001;-75
2022/03/03 07:37:29;;;;;;;73.13;29.85;;;1.80;99.90;;;;;;5000872;28;20076;-74
2022/03/03 07:40:03;;;;;;;63.33;30.67;;;1.80;99.90;;;;;;4998651;28;20026;-74
2022/03/03 07:42:29;;;;;;;49.63;22.45;;;1.80;99.90;;;;;;4997232;28;20034;-73
2022/03/03 07:44:55;;;;;;;63.08;29.90;;;1.70;99.90;;;;;;4997533;28;20037;-71
2022/03/03 07:47:21;;;;;;;64.03;30.17;;;1.70;99.90;;;;;;4998570;28;20583;-76
2022/03/03 07:49:47;;;;;;;58.58;27.33;;;1.70;99.90;;;;;;4996287;28;20026;-76
2022/03/03 07:52:12;;;;;;;63.28;25.05;;;1.60;99.90;;;;;;4995849;28;20102;-69
2022/03/03 07:54:38;;;;;;;49.40;22.80;;;1.70;99.90;;;;;;4995509;28;20039;-73
2022/03/03 07:57:08;;;;;;;59.45;24.48;;;1.70;99.90;;;;;;4996947;28;20041;-72
2022/03/03 07:59:35;;;;;;;50.25;23.65;;;1.70;99.90;;;;;;4996396;28;20042;-76
2022/03/03 08:02:04;;;;;;;52.90;21.45;;;1.70;99.90;;;;;;4993743;28;20390;-70
2022/03/03 08:04:32;;;;;;;41.25;21.38;;;1.80;99.90;;;;;;4995070;28;20077;-70
2022/03/03 08:07:04;;;;;;;38.65;20.40;;;1.90;99.90;;;;;;4994271;28;20026;-70
2022/03/03 08:09:32;;;;;;;46.92;21.67;;;1.90;99.90;;;;;;4994564;28;20031;-72
2022/03/03 08:12:02;;;;;;;57.53;23.98;;;2.00;99.90;;;;;;4994586;28;20105;-71
2022/03/03 08:14:29;;;;;;;44.40;21.83;;;2.20;99.90;;;;;;4994919;28;20073;-72
2022/03/03 08:16:54;;;;;;;42.17;20.92;;;2.30;99.90;;;;;;4994885;28;20034;-71
2022/03/03 08:19:21;;;;;;;40.47;20.52;;;2.40;99.90;;;;;;4995126;28;20029;-69
2022/03/03 08:21:48;;;;;;;60.35;22.08;;;2.50;99.90;;;;;;4994668;28;20057;-69
2022/03/03 08:24:14;;;;;;;60.05;24.92;;;2.60;99.90;;;;;;4995447;28;20535;-70
2022/03/03 08:26:42;;;;;;;46.35;21.17;;;2.70;99.90;;;;;;4994827;28;20022;-69
2022/03/03 08:29:09;;;;;;;55.65;22.20;;;2.70;99.90;;;;;;4994509;28;20023;-72
2022/03/03 08:31:37;;;;;;;42.17;19.08;;;2.70;99.90;;;;;;4995674;28;20045;-71
2022/03/03 08:34:12;;;;;;;56.55;26.15;;;2.70;99.90;;;;;;4994693;28;20097;-70
2022/03/03 08:37:06;;;;;;;42.13;18.73;;;2.70;99.90;;;;;;4994656;28;20018;-72
2022/03/03 08:39:38;;;;;;;41.17;18.52;;;2.90;99.90;;;;;;4993202;28;20397;-71
2022/03/03 08:42:08;;;;;;;36.47;18.23;;;3.00;99.90;;;;;;4996231;28;20026;-73
2022/03/03 08:44:35;;;;;;;39.65;18.95;;;3.10;99.90;;;;;;4995098;28;20766;-72
2022/03/03 08:47:03;;;;;;;35.97;18.45;;;3.10;99.90;;;;;;4994769;28;20057;-69
2022/03/03 08:49:40;;;;;;;42.75;19.23;;;2.90;99.90;;;;;;4995004;28;20065;-72
2022/03/03 08:52:07;;;;;;;40.80;18.77;;;2.90;99.90;;;;;;4995134;28;20423;-70
2022/03/03 08:54:33;;;;;;;43.33;19.00;;;2.80;99.90;;;;;;4997076;28;20033;-70
2022/03/03 08:56:59;;;;;;;38.40;18.33;;;2.80;99.90;;;;;;4994555;28;20106;-73
2022/03/03 08:59:25;;;;;;;44.15;19.67;;;2.90;99.90;;;;;;4994571;28;20050;-74
2022/03/03 09:01:51;;;;;;;38.50;19.02;;;3.00;99.90;;;;;;4996982;28;20086;-74
2022/03/03 09:04:17;;;;;;;42.88;19.52;;;3.00;99.90;;;;;;5000842;28;20045;-72
2022/03/03 09:06:44;;;;;;;41.05;20.95;;;3.10;99.90;;;;;;4996711;28;20088;-71
2022/03/03 09:09:09;;;;;;;41.20;18.08;;;3.10;99.90;;;;;;4994717;28;20030;-72
2022/03/03 09:11:35;;;;;;;43.33;18.92;;;3.20;99.90;;;;;;4997388;28;20108;-74
2022/03/03 09:14:01;;;;;;;40.78;18.23;;;3.20;99.90;;;;;;4999165;28;20026;-74
2022/03/03 09:16:26;;;;;;;38.58;18.52;;;3.20;99.90;;;;;;4997698;28;20040;-71
2022/03/03 09:18:52;;;;;;;34.65;18.13;;;3.30;99.90;;;;;;4996305;28;20443;-71
2022/03/03 09:21:18;;;;;;;37.45;19.13;;;3.30;99.90;;;;;;4995754;28;20030;-70
2022/03/03 09:23:44;;;;;;;36.85;17.35;;;3.30;99.90;;;;;;4997327;28;20105;-70
2022/03/03 09:26:10;;;;;;;32.85;16.52;;;3.40;99.90;;;;;;4996085;28;20029;-70
2022/03/03 09:28:35;;;;;;;42.55;15.90;;;3.40;99.90;;;;;;4993614;28;20101;-71
2022/03/03 09:31:01;;;;;;;32.90;16.02;;;3.40;99.90;;;;;;4993838;28;20061;-70
2022/03/03 09:33:27;;;;;;;32.00;15.27;;;3.40;99.90;;;;;;4992279;28;20109;-71
2022/03/03 09:35:53;;;;;;;34.03;14.48;;;3.50;99.90;;;;;;4993284;28;20030;-71
2022/03/03 09:38:18;;;;;;;25.60;13.52;;;3.50;99.90;;;;;;4993141;28;20026;-71
2022/03/03 09:40:44;;;;;;;28.55;12.50;;;3.50;99.90;;;;;;4992875;28;20034;-73
2022/03/03 09:43:10;;;;;;;23.50;12.48;;;3.50;99.90;;;;;;4993418;28;20018;-71
2022/03/03 09:45:37;;;;;;;25.30;12.00;;;3.50;99.90;;;;;;4991760;28;20035;-72
2022/03/03 09:48:06;;;;;;;22.83;12.45;;;3.50;99.90;;;;;;4993698;28;20062;-72
2022/03/03 09:50:35;;;;;;;20.90;11.05;;;3.40;99.90;;;;;;4993400;28;20042;-70
2022/03/03 09:53:09;;;;;;;21.17;11.55;;;3.50;99.90;;;;;;4995912;28;20046;-71
2022/03/03 09:55:36;;;;;;;22.55;13.25;;;3.40;99.90;;;;;;4994128;28;20030;-71
2022/03/03 09:58:02;;;;;;;20.92;11.82;;;3.50;99.90;;;;;;4995615;28;20097;-73
2022/03/03 10:00:33;;;;;;;30.05;15.40;;;3.50;99.90;;;;;;4993095;28;20403;-71
2022/03/03 10:03:08;;;;;;;25.92;12.45;;;3.40;99.90;;;;;;4993331;28;20030;-69
2022/03/03 10:05:40;;;;;;;23.13;12.77;;;3.40;99.90;;;;;;4992006;28;20031;-70
2022/03/03 10:08:11;;;;;;;21.98;12.30;;;3.40;99.90;;;;;;4994274;28;20023;-70
2022/03/03 10:10:39;;;;;;;22.52;12.60;;;3.50;99.90;;;;;;4993406;28;20153;-70
2022/03/03 10:13:05;;;;;;;23.83;12.48;;;3.60;99.90;;;;;;4992650;28;20365;-70
2022/03/03 10:15:33;;;;;;;22.20;11.00;;;3.70;99.90;;;;;;4991769;28;20034;-70
2022/03/03 10:18:02;;;;;;;24.17;12.02;;;3.70;99.90;;;;;;4993428;28;20467;-70
2022/03/03 10:20:29;;;;;;;22.02;12.32;;;3.80;99.90;;;;;;4993613;28;20101;-69
2022/03/03 10:22:58;;;;;;;22.27;12.07;;;3.90;99.90;;;;;;4994504;28;20026;-71
2022/03/03 10:25:27;;;;;;;21.65;11.23;;;4.00;99.90;;;;;;4992333;28;20085;-70
2022/03/03 10:27:53;;;;;;;25.98;12.55;;;4.10;99.90;;;;;;4996188;28;20018;-69
2022/03/03 10:30:19;;;;;;;21.67;11.13;;;4.10;99.90;;;;;;4992758;28;20081;-70
2022/03/03 10:32:44;;;;;;;20.92;10.68;;;4.00;99.90;;;;;;4995625;28;20033;-69
2022/03/03 10:35:15;;;;;;;20.08;10.68;;;4.00;99.90;;;;;;4993637;28;20031;-70
2022/03/03 10:37:43;;;;;;;23.90;11.35;;;4.10;99.90;;;;;;4994030;28;20023;-71
2022/03/03 10:40:11;;;;;;;18.38;10.18;;;4.20;99.90;;;;;;4994947;28;20062;-72
2022/03/03 10:42:40;;;;;;;18.80;10.00;;;4.20;99.90;;;;;;4996182;28;20109;-71
2022/03/03 10:45:11;;;;;;;20.05;9.90;;;4.30;99.90;;;;;;4993930;28;20387;-70
2022/03/03 10:47:42;;;;;;;22.85;10.80;;;4.30;99.90;;;;;;4992628;28;20117;-70
2022/03/03 10:50:08;;;;;;;24.10;10.38;;;4.40;99.90;;;;;;4992920;28;20015;-71
2022/03/03 10:52:35;;;;;;;21.10;10.80;;;4.30;99.90;;;;;;4992615;28;20099;-70
2022/03/03 10:55:12;;;;;;;21.40;10.45;;;4.20;99.90;;;;;;4994153;28;20031;-70
2022/03/03 10:57:40;;;;;;;21.25;11.30;;;4.20;99.90;;;;;;4994435;28;20537;-71
2022/03/03 11:00:06;;;;;;;19.98;11.05;;;4.20;99.90;;;;;;4995006;28;20036;-70
2022/03/03 11:02:33;;;;;;;22.05;11.90;;;4.30;99.90;;;;;;4993509;28;20479;-69
2022/03/03 11:04:59;;;;;;;19.63;10.85;;;4.30;99.90;;;;;;4992408;28;20104;-70
2022/03/03 11:07:25;;;;;;;20.35;10.63;;;4.40;99.90;;;;;;4991743;28;20058;-70
2022/03/03 11:09:51;;;;;;;17.83;9.88;;;4.50;99.90;;;;;;4992086;28;20026;-70
2022/03/03 11:12:18;;;;;;;19.52;10.05;;;4.50;99.90;;;;;;4992003;28;20027;-70
2022/03/03 11:14:44;;;;;;;20.92;11.07;;;4.60;99.90;;;;;;4992184;28;20110;-70
2022/03/03 11:17:10;;;;;;;19.75;10.00;;;4.80;99.90;;;;;;4991870;28;20518;-70
2022/03/03 11:19:38;;;;;;;19.30;10.05;;;4.90;99.90;;;;;;4992334;28;20490;-70
2022/03/03 11:22:04;;;;;;;19.02;10.77;;;4.80;99.90;;;;;;4993592;28;20082;-70
2022/03/03 11:24:32;;;;;;;20.67;10.15;;;4.90;99.90;;;;;;4995090;28;20392;-70
2022/03/03 11:27:00;;;;;;;22.73;11.82;;;5.00;99.90;;;;;;4993646;28;20022;-69
2022/03/03 11:29:27;;;;;;;21.70;10.75;;;5.00;99.90;;;;;;4996413;28;20037;-69
2022/03/03 11:32:15;;;;;;;21.48;11.43;;;5.10;99.90;;;;;;4995853;28;20045;-69
2022/03/03 11:34:45;;;;;;;21.67;10.88;;;5.10;99.90;;;;;;4997708;28;20026;-70
2022/03/03 11:37:23;;;;;;;26.48;11.60;;;5.20;99.90;;;;;;4997343;28;20106;-70
2022/03/03 11:39:54;;;;;;;27.77;10.75;;;5.40;99.90;;;;;;4999821;28;20081;-71
2022/03/03 11:42:47;;;;;;;20.15;10.82;;;5.80;99.90;;;;;;5000352;28;20018;-73
2022/03/03 11:45:13;;;;;;;17.90;10.27;;;6.30;99.90;;;;;;4998484;28;20026;-71
2022/03/03 11:47:42;;;;;;;18.92;10.60;;;6.50;99.90;;;;;;4996821;28;20030;-71
2022/03/03 11:50:17;;;;;;;19.25;10.20;;;6.60;99.90;;;;;;4995892;28;20018;-70
2022/03/03 11:52:59;;;;;;;52.25;27.60;;;6.40;99.90;;;;;;4996346;28;20094;-71
2022/03/03 11:55:38;;;;;;;24.08;11.38;;;6.20;99.90;;;;;;4998211;28;20656;-70
2022/03/03 11:58:07;;;;;;;17.77;10.30;;;6.10;99.90;;;;;;4999261;28;20457;-72
2022/03/03 12:00:41;;;;;;;23.65;10.05;;;5.90;99.90;;;;;;4997175;28;20042;-72
2022/03/03 12:03:12;;;;;;;20.02;10.32;;;6.10;99.90;;;;;;4996296;28;20034;-70
2022/03/03 12:05:42;;;;;;;18.05;9.60;;;6.30;99.90;;;;;;4995953;28;20125;-71
2022/03/03 12:08:14;;;;;;;16.42;9.18;;;6.50;99.90;;;;;;5023324;23;20070;-74
2022/03/03 12:11:11;;;;;;;17.25;9.30;;;6.80;99.90;;;;;;5016751;28;20026;-74
2022/03/03 12:13:39;;;;;;;18.45;9.18;;;7.10;99.90;;;;;;5016473;28;20029;-74
2022/03/03 12:16:19;;;;;;;15.43;8.55;;;7.90;99.90;;;;;;5013298;28;20495;-75
2022/03/03 12:18:47;;;;;;;15.20;8.32;;;9.40;99.90;;;;;;5002623;28;20026;-74
2022/03/03 12:21:34;;;;;;;16.70;8.07;;;10.90;99.90;;;;;;4995319;28;20081;-73
2022/03/03 12:24:17;;;;;;;12.45;7.63;;;12.80;99.90;;;;;;4995187;28;20026;-75
2022/03/03 12:26:54;;;;;;;12.68;7.60;;;14.60;99.90;;;;;;4995240;28;20022;-74
2022/03/03 12:29:52;;;;;;;13.35;7.75;;;16.00;99.90;;;;;;4995682;28;20022;-74
2022/03/03 12:32:32;;;;;;;15.65;7.85;;;16.30;99.50;;;;;;4995136;28;20018;-74
2022/03/03 12:35:06;;;;;;;13.20;8.05;;;16.00;98.50;;;;;;4995692;28;20029;-75
2022/03/03 12:37:32;;;;;;;18.25;7.88;;;15.70;98.10;;;;;;4994969;28;20037;-74
2022/03/03 12:40:00;;;;;;;11.13;6.85;;;15.00;98.50;;;;;;4992190;28;20087;-76
2022/03/03 12:42:29;;;;;;;12.40;7.60;;;15.40;99.20;;;;;;4995093;28;20081;-75